createdAt,value
2023-03-11T00:00:46.940Z,38.88
2023-03-11T00:03:16.390Z,43.13
2023-03-11T00:05:45.277Z,35.58
2023-03-11T00:08:16.292Z,41.30
2023-03-11T00:10:46.493Z,37.25
2023-03-11T00:13:16.483Z,39.28
2023-03-11T00:15:45.021Z,43.00
2023-03-11T00:18:13.068Z,43.22
2023-03-11T00:20:42.174Z,37.30
2023-03-11T00:23:10.917Z,33.25
2023-03-11T00:25:41.126Z,37.45
2023-03-11T00:28:10.568Z,37.13
2023-03-11T00:30:39.039Z,34.45
2023-03-11T00:33:07.980Z,36.92
2023-03-11T00:35:36.574Z,31.15
2023-03-11T00:38:07.443Z,32.15
2023-03-11T00:40:36.226Z,31.30
2023-03-11T00:43:06.021Z,32.25
2023-03-11T00:45:37.068Z,30.25
2023-03-11T00:48:05.977Z,33.83
2023-03-11T00:50:38.769Z,31.85
2023-03-11T00:53:09.623Z,31.00
2023-03-11T00:55:37.797Z,31.73
2023-03-11T00:58:08.509Z,32.17
2023-03-11T01:00:36.791Z,36.45
2023-03-11T01:03:05.723Z,38.88
2023-03-11T01:05:34.440Z,31.73
2023-03-11T01:08:03.291Z,31.90
2023-03-11T01:10:32.254Z,30.73
2023-03-11T01:13:00.357Z,28.17
2023-03-11T01:15:31.441Z,32.50
2023-03-11T01:18:00.009Z,33.08
2023-03-11T01:20:28.341Z,28.73
2023-03-11T01:22:57.092Z,23.73
2023-03-11T01:25:25.688Z,26.42
2023-03-11T01:27:53.844Z,23.48
2023-03-11T01:30:23.720Z,20.48
2023-03-11T01:32:54.243Z,22.35
2023-03-11T01:35:26.500Z,22.38
2023-03-11T01:37:54.719Z,16.23
2023-03-11T01:40:25.951Z,14.48
2023-03-11T01:42:54.104Z,14.40
2023-03-11T01:45:33.174Z,15.65
2023-03-11T01:48:03.682Z,12.70
2023-03-11T01:50:33.945Z,14.85
2023-03-11T01:53:02.425Z,13.68
2023-03-11T01:55:30.730Z,13.55
2023-03-11T01:57:59.591Z,12.88
2023-03-11T02:00:28.000Z,10.25
2023-03-11T02:02:59.106Z,10.15
2023-03-11T02:05:28.962Z,10.93
2023-03-11T02:07:57.701Z,9.15
2023-03-11T02:10:26.199Z,10.90
2023-03-11T02:12:54.446Z,9.07
2023-03-11T02:15:22.751Z,8.45
2023-03-11T02:17:51.322Z,9.55
2023-03-11T02:20:33.726Z,10.13
2023-03-11T02:23:02.848Z,10.23
2023-03-11T02:25:36.152Z,7.90
2023-03-11T02:28:07.027Z,8.82
2023-03-11T02:30:35.915Z,13.73
2023-03-11T02:33:04.357Z,14.27
2023-03-11T02:35:32.706Z,11.27
2023-03-11T02:38:01.369Z,11.68
2023-03-11T02:40:44.750Z,14.45
2023-03-11T02:43:15.805Z,12.55
2023-03-11T02:45:45.222Z,10.10
2023-03-11T02:48:14.377Z,13.60
2023-03-11T02:50:43.008Z,10.60
2023-03-11T02:53:11.228Z,13.73
2023-03-11T02:55:40.634Z,10.77
2023-03-11T02:58:10.383Z,8.77
2023-03-11T03:00:40.652Z,10.10
2023-03-11T03:03:10.706Z,8.88
2023-03-11T03:05:38.725Z,8.98
2023-03-11T03:08:07.656Z,8.18
2023-03-11T03:10:36.069Z,9.50
2023-03-11T03:13:04.457Z,10.18
2023-03-11T03:15:32.597Z,9.23
2023-03-11T03:18:02.688Z,9.95
2023-03-11T03:20:30.687Z,8.00
2023-03-11T03:22:58.894Z,7.78
2023-03-11T03:25:27.342Z,8.57
2023-03-11T03:27:55.812Z,10.25
2023-03-11T03:30:24.388Z,6.43
2023-03-11T03:32:52.809Z,7.05
2023-03-11T03:35:22.951Z,7.18
2023-03-11T03:37:51.195Z,10.00
2023-03-11T03:40:19.843Z,10.68
2023-03-11T03:42:48.440Z,6.53
2023-03-11T03:45:16.651Z,6.07
2023-03-11T03:47:45.210Z,4.88
2023-03-11T03:50:13.739Z,4.90
2023-03-11T03:52:43.629Z,5.13
2023-03-11T03:55:12.417Z,5.13
2023-03-11T03:57:40.836Z,4.35
2023-03-11T04:00:10.281Z,5.28
2023-03-11T04:02:39.352Z,2.80
2023-03-11T04:05:08.046Z,4.30
2023-03-11T04:07:36.580Z,4.05
2023-03-11T04:10:07.025Z,3.78
2023-03-11T04:12:35.058Z,3.95
2023-03-11T04:15:03.498Z,3.55
2023-03-11T04:17:34.045Z,3.42
2023-03-11T04:20:02.288Z,3.40
2023-03-11T04:22:30.593Z,3.45
2023-03-11T04:24:59.040Z,3.47
2023-03-11T04:27:28.913Z,2.67
2023-03-11T04:29:57.448Z,3.95
2023-03-11T04:32:25.879Z,3.33
2023-03-11T04:34:54.040Z,2.97
2023-03-11T04:37:22.470Z,1.63
2023-03-11T04:39:53.399Z,4.57
2023-03-11T04:42:21.767Z,1.45
2023-03-11T04:44:51.490Z,5.63
2023-03-11T04:47:20.289Z,3.22
2023-03-11T04:49:56.196Z,3.40
2023-03-11T04:52:24.956Z,2.53
2023-03-11T04:54:53.259Z,4.25
2023-03-11T04:57:24.759Z,1.65
2023-03-11T04:59:54.361Z,1.95
2023-03-11T05:02:22.581Z,2.17
2023-03-11T05:04:50.589Z,2.88
2023-03-11T05:07:23.051Z,1.70
2023-03-11T05:09:52.041Z,2.28
2023-03-11T05:12:20.564Z,3.22
2023-03-11T05:14:48.446Z,2.40
2023-03-11T05:17:19.463Z,1.95
2023-03-11T05:19:54.247Z,1.65
2023-03-11T05:22:23.237Z,1.30
2023-03-11T05:24:52.710Z,1.55
2023-03-11T05:27:21.379Z,1.27
2023-03-11T05:29:49.918Z,2.47
2023-03-11T05:32:20.229Z,1.38
2023-03-11T05:34:48.392Z,2.72
2023-03-11T05:37:17.379Z,1.80
2023-03-11T05:39:45.839Z,2.38
2023-03-11T05:42:14.701Z,1.85
2023-03-11T05:44:43.305Z,1.77
2023-03-11T05:47:11.715Z,10.63
2023-03-11T05:49:41.600Z,2.10
2023-03-11T05:52:10.095Z,2.08
2023-03-11T05:54:38.520Z,2.22
2023-03-11T05:57:06.806Z,2.67
2023-03-11T05:59:35.626Z,2.25
2023-03-11T06:02:03.767Z,3.50
2023-03-11T06:04:32.290Z,2.10
2023-03-11T06:07:01.840Z,3.85
2023-03-11T06:09:30.381Z,1.83
2023-03-11T06:11:58.910Z,4.15
2023-03-11T06:14:32.349Z,3.65
2023-03-11T06:17:01.011Z,1.27
2023-03-11T06:19:29.440Z,2.67
2023-03-11T06:21:57.907Z,3.35
2023-03-11T06:24:27.785Z,3.95
2023-03-11T06:26:56.350Z,2.97
2023-03-11T06:29:26.646Z,2.08
2023-03-11T06:31:57.687Z,1.55
2023-03-11T06:34:26.202Z,3.97
2023-03-11T06:36:54.874Z,2.72
2023-03-11T06:39:23.419Z,3.10
2023-03-11T06:41:53.479Z,2.45
2023-03-11T06:44:21.641Z,2.38
2023-03-11T06:46:49.723Z,2.45
2023-03-11T06:49:20.046Z,3.70
2023-03-11T06:51:49.034Z,3.60
2023-03-11T06:54:21.983Z,3.92
2023-03-11T06:56:53.684Z,3.80
2023-03-11T06:59:26.268Z,2.00
2023-03-11T07:01:58.825Z,1.95
2023-03-11T07:04:28.983Z,3.30
2023-03-11T07:06:57.907Z,4.57
2023-03-11T07:09:28.559Z,4.30
2023-03-11T07:12:00.120Z,4.68
2023-03-11T07:14:29.470Z,4.43
2023-03-11T07:16:58.585Z,4.88
2023-03-11T07:19:28.628Z,4.32
2023-03-11T07:21:58.236Z,4.35
2023-03-11T07:24:28.259Z,3.35
2023-03-11T07:27:01.148Z,3.63
2023-03-11T07:29:33.601Z,3.38
2023-03-11T07:32:02.777Z,5.05
2023-03-11T07:34:36.407Z,3.58
2023-03-11T07:37:09.220Z,2.75
2023-03-11T07:39:38.755Z,3.00
2023-03-11T07:42:25.041Z,3.22
2023-03-11T07:44:54.998Z,3.25
2023-03-11T07:47:24.848Z,2.45
2023-03-11T07:49:56.325Z,3.95
2023-03-11T07:52:25.678Z,2.55
2023-03-11T07:54:54.492Z,3.08
2023-03-11T07:57:23.649Z,4.63
2023-03-11T07:59:57.974Z,4.60
2023-03-11T08:02:26.733Z,3.63
2023-03-11T08:04:56.751Z,3.45
2023-03-11T08:07:25.343Z,2.55
2023-03-11T08:09:56.957Z,5.22
2023-03-11T08:12:25.453Z,3.50
2023-03-11T08:14:56.469Z,3.08
2023-03-11T08:17:27.431Z,3.30
2023-03-11T08:19:57.874Z,3.55
2023-03-11T08:22:26.835Z,6.50
2023-03-11T08:24:57.027Z,4.75
2023-03-11T08:27:26.311Z,5.20
2023-03-11T08:29:58.457Z,7.90
2023-03-11T08:32:31.467Z,3.75
2023-03-11T08:35:07.571Z,5.07
2023-03-11T08:41:27.010Z,2.65
2023-03-11T08:44:02.590Z,3.42
2023-03-11T08:47:23.445Z,3.33
2023-03-11T08:50:18.289Z,4.53
2023-03-11T08:53:55.820Z,4.28
2023-03-11T08:56:27.485Z,2.30
2023-03-11T09:17:01.769Z,3.33
2023-03-11T09:27:42.490Z,4.15
2023-03-11T09:34:02.861Z,3.85
2023-03-11T09:36:48.137Z,2.47
2023-03-11T09:43:39.124Z,3.65
2023-03-11T09:46:29.014Z,2.60
2023-03-11T09:49:34.931Z,3.28
2023-03-11T09:52:38.910Z,3.30
2023-03-11T09:59:55.771Z,3.20
2023-03-11T10:06:30.908Z,2.55
2023-03-11T10:13:59.483Z,2.45
2023-03-11T10:16:58.053Z,3.35
2023-03-11T10:31:42.128Z,3.47
2023-03-11T10:46:28.097Z,3.05
2023-03-11T10:54:05.567Z,4.22
2023-03-11T10:56:39.763Z,3.10
2023-03-11T11:11:32.171Z,3.58
2023-03-11T11:36:41.834Z,1.40
2023-03-11T11:51:02.754Z,1.52
2023-03-11T12:09:15.048Z,1.65
2023-03-11T12:16:33.803Z,1.90
2023-03-11T12:26:35.146Z,3.60
2023-03-11T12:30:00.972Z,2.15
2023-03-11T12:36:34.101Z,2.28
2023-03-11T12:46:28.656Z,2.10
2023-03-11T12:49:52.374Z,3.10
2023-03-11T12:56:34.874Z,3.13
2023-03-11T13:03:54.720Z,1.63
2023-03-11T13:07:34.133Z,3.05
2023-03-11T13:22:03.100Z,1.75
2023-03-11T13:25:23.964Z,1.77
2023-03-11T13:51:30.242Z,1.25
2023-03-11T14:01:35.272Z,2.35
2023-03-11T14:11:27.568Z,3.17
2023-03-11T14:21:31.291Z,5.65
2023-03-11T14:31:29.286Z,2.40
2023-03-11T14:41:35.502Z,3.67
2023-03-11T14:51:31.481Z,3.90
2023-03-11T15:01:30.185Z,1.95
2023-03-11T15:11:32.741Z,3.40
2023-03-11T15:21:28.386Z,2.17
2023-03-11T15:24:01.689Z,3.25
2023-03-11T15:26:34.005Z,2.42
2023-03-11T15:29:05.895Z,2.17
2023-03-11T15:31:38.072Z,2.33
2023-03-11T15:34:12.474Z,2.85
2023-03-11T15:36:49.520Z,4.30
2023-03-11T15:39:24.328Z,1.85
2023-03-11T15:42:08.277Z,2.30
2023-03-11T15:44:43.881Z,3.05
2023-03-11T15:47:16.838Z,3.13
2023-03-11T15:49:47.892Z,2.97
2023-03-11T15:52:21.232Z,2.42
2023-03-11T15:54:58.329Z,3.55
2023-03-11T15:57:31.116Z,2.63
2023-03-11T16:00:04.565Z,2.10
2023-03-11T16:02:39.699Z,3.22
2023-03-11T16:05:23.867Z,2.90
2023-03-11T16:08:00.041Z,3.30
2023-03-11T16:10:36.034Z,3.25
2023-03-11T16:13:08.856Z,3.20
2023-03-11T16:15:47.949Z,1.75
2023-03-11T16:18:18.652Z,2.83
2023-03-11T16:20:53.239Z,2.17
2023-03-11T16:23:27.538Z,2.72
2023-03-11T16:26:12.569Z,2.88
2023-03-11T16:28:47.065Z,2.08
2023-03-11T16:31:33.364Z,2.65
2023-03-11T16:34:10.135Z,4.40
2023-03-11T16:36:39.491Z,3.80
2023-03-11T16:39:08.127Z,3.40
2023-03-11T16:41:41.831Z,2.40
2023-03-11T16:44:10.323Z,2.10
2023-03-11T16:46:38.627Z,2.40
2023-03-11T16:49:07.049Z,3.85
2023-03-11T16:51:35.346Z,4.30
2023-03-11T16:54:03.513Z,4.53
2023-03-11T16:56:41.758Z,4.30
2023-03-11T16:59:14.040Z,5.25
2023-03-11T17:01:42.384Z,4.28
2023-03-11T17:04:10.970Z,3.50
2023-03-11T17:06:40.284Z,5.13
2023-03-11T17:09:08.537Z,5.25
2023-03-11T17:11:36.581Z,5.05
2023-03-11T17:14:15.980Z,4.20
2023-03-11T17:16:46.759Z,8.77
2023-03-11T17:19:20.085Z,4.75
2023-03-11T17:21:49.944Z,4.35
2023-03-11T17:24:18.376Z,3.42
2023-03-11T17:26:47.087Z,3.50
2023-03-11T17:29:15.555Z,5.28
2023-03-11T17:31:44.254Z,3.55
2023-03-11T17:34:14.786Z,4.65
2023-03-11T17:36:43.446Z,5.60
2023-03-11T17:39:17.513Z,3.25
2023-03-11T17:41:50.636Z,4.70
2023-03-11T17:44:21.100Z,2.92
2023-03-11T17:46:53.543Z,3.05
2023-03-11T17:49:28.491Z,2.90
2023-03-11T17:52:01.033Z,2.90
2023-03-11T17:54:33.089Z,5.70
2023-03-11T17:57:03.780Z,3.95
2023-03-11T17:59:37.032Z,3.63
2023-03-11T18:02:10.210Z,4.03
2023-03-11T18:04:50.565Z,6.35
2023-03-11T18:07:24.067Z,3.25
2023-03-11T18:09:58.026Z,5.22
2023-03-11T18:12:30.579Z,4.43
2023-03-11T18:15:05.959Z,7.82
2023-03-11T18:17:42.409Z,4.00
2023-03-11T18:20:16.589Z,4.75
2023-03-11T18:22:49.694Z,4.28
2023-03-11T18:25:21.615Z,4.75
2023-03-11T18:27:53.535Z,5.30
2023-03-11T18:30:26.773Z,5.22
2023-03-11T18:33:01.183Z,6.00
2023-03-11T18:35:37.451Z,3.88
2023-03-11T18:38:10.477Z,4.07
2023-03-11T18:40:43.911Z,5.28
2023-03-11T18:43:20.918Z,2.97
2023-03-11T18:45:52.991Z,4.80
2023-03-11T18:48:24.662Z,4.63
2023-03-11T18:50:59.201Z,3.85
2023-03-11T18:53:30.586Z,7.55
2023-03-11T18:56:04.136Z,4.10
2023-03-11T18:58:35.182Z,3.63
2023-03-11T19:01:11.946Z,4.38
2023-03-11T19:03:43.680Z,4.40
2023-03-11T19:06:19.937Z,4.20
2023-03-11T19:08:53.646Z,3.90
2023-03-11T19:11:27.707Z,4.50
2023-03-11T19:13:56.099Z,4.25
2023-03-11T19:16:25.627Z,6.65
2023-03-11T19:18:55.420Z,7.60
2023-03-11T19:21:28.342Z,6.18
2023-03-11T19:23:58.864Z,4.20
2023-03-11T19:26:43.643Z,4.43
2023-03-11T19:29:15.211Z,3.45
2023-03-11T19:31:45.436Z,3.72
2023-03-11T19:34:14.004Z,3.88
2023-03-11T19:36:44.308Z,3.70
2023-03-11T19:39:12.826Z,3.28
2023-03-11T19:41:41.681Z,4.45
2023-03-11T19:44:10.918Z,5.22
2023-03-11T19:46:41.609Z,3.92
2023-03-11T19:49:09.883Z,3.78
2023-03-11T19:51:48.979Z,3.25
2023-03-11T19:54:20.303Z,5.45
2023-03-11T19:56:48.485Z,3.83
2023-03-11T19:59:17.299Z,3.88
2023-03-11T20:01:47.184Z,3.88
2023-03-11T20:04:15.902Z,3.30
2023-03-11T20:06:44.325Z,4.50
2023-03-11T20:09:13.349Z,3.75
2023-03-11T20:11:43.496Z,4.07
2023-03-11T20:14:11.753Z,3.80
2023-03-11T20:16:43.470Z,2.22
2023-03-11T20:19:15.795Z,3.85
2023-03-11T20:21:51.384Z,6.38
2023-03-11T20:24:24.397Z,4.43
2023-03-11T20:26:59.159Z,4.82
2023-03-11T20:29:28.925Z,5.50
2023-03-11T20:31:59.528Z,5.10
2023-03-11T20:34:30.292Z,5.25
2023-03-11T20:37:05.264Z,3.38
2023-03-11T20:39:38.435Z,6.50
2023-03-11T20:42:11.468Z,5.22
2023-03-11T20:44:42.353Z,3.50
2023-03-11T20:47:15.357Z,5.57
2023-03-11T20:49:48.709Z,6.38
2023-03-11T20:52:22.436Z,6.03
2023-03-11T20:54:53.225Z,5.68
2023-03-11T20:57:27.148Z,5.60
2023-03-11T20:59:58.127Z,5.40
2023-03-11T21:02:31.375Z,4.50
2023-03-11T21:05:01.634Z,5.82
2023-03-11T21:07:32.275Z,5.50
2023-03-11T21:10:03.072Z,8.30
2023-03-11T21:12:34.832Z,8.38
2023-03-11T21:15:05.079Z,5.57
2023-03-11T21:17:38.290Z,5.88
2023-03-11T21:20:09.801Z,4.25
2023-03-11T21:22:43.715Z,3.78
2023-03-11T21:25:14.290Z,5.15
2023-03-11T21:27:48.575Z,4.57
2023-03-11T21:30:19.424Z,6.18
2023-03-11T21:32:49.856Z,5.78
2023-03-11T21:35:20.843Z,5.03
2023-03-11T21:37:54.110Z,4.68
2023-03-11T21:40:27.260Z,4.13
2023-03-11T21:42:59.250Z,3.80
2023-03-11T21:45:32.467Z,4.68
2023-03-11T21:48:08.139Z,5.78
2023-03-11T21:50:39.812Z,6.82
2023-03-11T21:53:10.780Z,6.45
2023-03-11T21:55:46.182Z,5.95
2023-03-11T21:58:18.623Z,6.40
2023-03-11T22:00:48.359Z,5.57
2023-03-11T22:03:18.782Z,5.60
2023-03-11T22:05:56.792Z,4.10
2023-03-11T22:08:27.912Z,3.97
2023-03-11T22:10:56.818Z,3.70
2023-03-11T22:13:29.697Z,5.18
2023-03-11T22:16:00.794Z,5.07
2023-03-11T22:18:30.992Z,4.93
2023-03-11T22:21:01.013Z,4.82
2023-03-11T22:23:30.122Z,6.22
2023-03-11T22:26:02.825Z,5.13
2023-03-11T22:28:34.619Z,6.05
2023-03-11T22:31:09.063Z,6.13
2023-03-11T22:33:39.196Z,4.70
2023-03-11T22:36:13.478Z,5.70
2023-03-11T22:38:45.460Z,5.30
2023-03-11T22:41:17.939Z,5.50
2023-03-11T22:43:48.330Z,5.65
2023-03-11T22:46:16.491Z,4.60
2023-03-11T22:48:44.982Z,4.63
2023-03-11T22:51:14.699Z,6.03
2023-03-11T22:53:45.784Z,6.35
2023-03-11T22:56:19.133Z,5.03
2023-03-11T22:58:52.917Z,6.15
2023-03-11T23:01:22.030Z,6.68
2023-03-11T23:03:52.092Z,4.68
2023-03-11T23:06:22.872Z,3.80
2023-03-11T23:08:56.462Z,4.85
2023-03-11T23:11:28.131Z,4.75
2023-03-11T23:13:58.191Z,4.07
2023-03-11T23:16:27.273Z,4.75
2023-03-11T23:18:57.603Z,5.57
2023-03-11T23:21:27.803Z,4.88
2023-03-11T23:23:56.825Z,5.03
2023-03-11T23:26:25.428Z,5.45
2023-03-11T23:28:54.868Z,5.20
2023-03-11T23:31:26.828Z,6.88
2023-03-11T23:33:55.547Z,6.88
2023-03-11T23:36:26.841Z,7.32
2023-03-11T23:38:55.122Z,8.65
2023-03-11T23:41:27.624Z,7.43
2023-03-11T23:43:56.516Z,8.07
2023-03-11T23:46:30.558Z,9.80
2023-03-11T23:49:01.095Z,9.25
2023-03-11T23:51:31.322Z,10.20
2023-03-11T23:53:59.668Z,8.77
2023-03-11T23:56:28.504Z,7.53
2023-03-11T23:58:57.419Z,9.40
